UAE221 OERK-EDDF
Flight info
| Callsign | UAE221 |
|---|---|
| Flight time | N/A |
| Altitude | 38000 |
| Route | IVONU Z710 GAS G662 NIMAR L550 NOVPA N697 SISIK/N0485F400 N697 MENLI L677 CVO L617 NOZ L551 ANTAR DCT RIGRO DCT DISOR DCT LONTA UL608 DOLEV DCT BEDOX DCT SIMBA DCT AKINI T161 DEBHI DEBHI1C |
| Aircraft | A388/J-SADE2E3FGHIJ3J4J5M1RWXY/LB1D1 |
Departure
| Time | 2026-05-08 07:41 |
|---|---|
| Airport | King Khalid International Airport (OERK) |
Arrival
| Time | N/A |
|---|---|
| Airport | Frankfurt Main Airport (EDDF) |
| Time | Latitude | Longitude | Altitude | Speed | Heading |
|---|---|---|---|---|---|
| 2026-05-08 07:12 | 24.95833 | 46.70547 | 2043 ft | 0 kts | 310° |
| 2026-05-08 07:33 | 24.95819 | 46.70564 | 2051 ft | 4 kts | 310° |
| 2026-05-08 07:33 | 24.95800 | 46.70589 | 2043 ft | 4 kts | 310° |
| 2026-05-08 07:33 | 24.95789 | 46.70619 | 2048 ft | 4 kts | 257° |
| 2026-05-08 07:34 | 24.95816 | 46.70632 | 2049 ft | 5 kts | 185° |
| 2026-05-08 07:34 | 24.95848 | 46.70630 | 2048 ft | 3 kts | 167° |
| 2026-05-08 07:34 | 24.95864 | 46.70625 | 2048 ft | 3 kts | 159° |
| 2026-05-08 07:34 | 24.95869 | 46.70621 | 2050 ft | 0 kts | 149° |
| 2026-05-08 07:35 | 24.95863 | 46.70626 | 2048 ft | 9 kts | 142° |
| 2026-05-08 07:36 | 24.95815 | 46.70676 | 2049 ft | 9 kts | 124° |
| 2026-05-08 07:36 | 24.95780 | 46.70731 | 2047 ft | 9 kts | 125° |
| 2026-05-08 07:36 | 24.95744 | 46.70778 | 2050 ft | 8 kts | 137° |
| 2026-05-08 07:36 | 24.95704 | 46.70812 | 2043 ft | 7 kts | 146° |
| 2026-05-08 07:37 | 24.95644 | 46.70850 | 2046 ft | 17 kts | 154° |
| 2026-05-08 07:37 | 24.95489 | 46.70935 | 2041 ft | 32 kts | 147° |
| 2026-05-08 07:37 | 24.95360 | 46.71084 | 2042 ft | 24 kts | 99° |
| 2026-05-08 07:37 | 24.95402 | 46.71232 | 2041 ft | 18 kts | 80° |
| 2026-05-08 07:38 | 24.95347 | 46.71333 | 2045 ft | 25 kts | 142° |
| 2026-05-08 07:38 | 24.95147 | 46.71457 | 2044 ft | 40 kts | 150° |
| 2026-05-08 07:38 | 24.94870 | 46.71639 | 2042 ft | 52 kts | 148° |
| 2026-05-08 07:38 | 24.94530 | 46.71860 | 2038 ft | 61 kts | 149° |
| 2026-05-08 07:39 | 24.94395 | 46.71949 | 2038 ft | 18 kts | 149° |
| 2026-05-08 07:39 | 24.94307 | 46.72044 | 2033 ft | 12 kts | 88° |
| 2026-05-08 07:39 | 24.94327 | 46.72100 | 2039 ft | 0 kts | 42° |
| 2026-05-08 07:39 | 24.94330 | 46.72105 | 2040 ft | 6 kts | 53° |
| 2026-05-08 07:40 | 24.94451 | 46.72215 | 2037 ft | 23 kts | 17° |
| 2026-05-08 07:40 | 24.94551 | 46.72183 | 2034 ft | 13 kts | 324° |
| 2026-05-08 07:40 | 24.94615 | 46.72136 | 2040 ft | 9 kts | 326° |
| 2026-05-08 07:40 | 24.94724 | 46.72067 | 2040 ft | 47 kts | 331° |
| 2026-05-08 07:41 | 24.95249 | 46.71738 | 2044 ft | 120 kts | 330° |
| 2026-05-08 07:41 | 24.96117 | 46.71195 | 2049 ft | 164 kts | 331° |
| 2026-05-08 07:41 | 24.97156 | 46.70536 | 2348 ft | 172 kts | 329° |
| 2026-05-08 07:41 | 24.98153 | 46.69834 | 2906 ft | 170 kts | 328° |
| 2026-05-08 07:42 | 24.99230 | 46.69114 | 3243 ft | 190 kts | 333° |
| 2026-05-08 07:42 | 25.00395 | 46.68429 | 3916 ft | 194 kts | 334° |
| 2026-05-08 07:42 | 25.01631 | 46.67690 | 4286 ft | 215 kts | 333° |
| 2026-05-08 07:42 | 25.02999 | 46.66843 | 4655 ft | 237 kts | 332° |
| 2026-05-08 07:43 | 25.04546 | 46.66030 | 4956 ft | 254 kts | 349° |
| 2026-05-08 07:43 | 25.06250 | 46.66062 | 5630 ft | 251 kts | 18° |
| 2026-05-08 07:43 | 25.07796 | 46.66951 | 6335 ft | 253 kts | 34° |
| 2026-05-08 07:43 | 25.09306 | 46.67986 | 6947 ft | 258 kts | 26° |
| 2026-05-08 07:44 | 25.11009 | 46.68649 | 7539 ft | 264 kts | 7° |
| 2026-05-08 07:44 | 25.12836 | 46.68472 | 8179 ft | 268 kts | 340° |
| 2026-05-08 07:44 | 25.14410 | 46.67385 | 8821 ft | 270 kts | 313° |
| 2026-05-08 07:44 | 25.15420 | 46.65652 | 9039 ft | 270 kts | 287° |
| 2026-05-08 07:45 | 25.15639 | 46.63671 | 9050 ft | 268 kts | 261° |
| 2026-05-08 07:45 | 25.15016 | 46.61770 | 9058 ft | 265 kts | 234° |
| 2026-05-08 07:45 | 25.13680 | 46.60400 | 9079 ft | 263 kts | 211° |
| 2026-05-08 07:45 | 25.12087 | 46.59413 | 9058 ft | 264 kts | 210° |
| 2026-05-08 07:46 | 25.10555 | 46.58292 | 9061 ft | 264 kts | 217° |
| 2026-05-08 07:46 | 25.09169 | 46.56967 | 9064 ft | 264 kts | 223° |
| 2026-05-08 07:46 | 25.08029 | 46.55386 | 9080 ft | 266 kts | 243° |
| 2026-05-08 07:46 | 25.07571 | 46.53422 | 9062 ft | 267 kts | 266° |
| 2026-05-08 07:47 | 25.07568 | 46.51355 | 9070 ft | 282 kts | 269° |
| 2026-05-08 07:47 | 25.07545 | 46.49151 | 9054 ft | 291 kts | 268° |
| 2026-05-08 07:47 | 25.07505 | 46.46917 | 9059 ft | 292 kts | 268° |
| 2026-05-08 07:47 | 25.07458 | 46.44681 | 9055 ft | 291 kts | 267° |
| 2026-05-08 07:48 | 25.07411 | 46.42457 | 9052 ft | 290 kts | 267° |
| 2026-05-08 07:48 | 25.07364 | 46.40235 | 9058 ft | 291 kts | 267° |
| 2026-05-08 07:48 | 25.07316 | 46.38001 | 9052 ft | 291 kts | 267° |
| 2026-05-08 07:48 | 25.07269 | 46.35779 | 9048 ft | 290 kts | 267° |
| 2026-05-08 07:49 | 25.07220 | 46.33551 | 9046 ft | 291 kts | 267° |
| 2026-05-08 07:49 | 25.07171 | 46.31313 | 9142 ft | 292 kts | 267° |
| 2026-05-08 07:49 | 25.07122 | 46.29097 | 9524 ft | 294 kts | 266° |
| 2026-05-08 07:49 | 25.07075 | 46.26850 | 10307 ft | 293 kts | 266° |
| 2026-05-08 07:50 | 25.07023 | 46.24541 | 10602 ft | 311 kts | 266° |
| 2026-05-08 07:50 | 25.06964 | 46.22083 | 10772 ft | 330 kts | 266° |
| 2026-05-08 07:50 | 25.06903 | 46.19493 | 11067 ft | 343 kts | 266° |
| 2026-05-08 07:50 | 25.06846 | 46.16849 | 11704 ft | 346 kts | 266° |
| 2026-05-08 07:51 | 25.06788 | 46.14187 | 12344 ft | 349 kts | 265° |
| 2026-05-08 07:51 | 25.06728 | 46.11547 | 12992 ft | 350 kts | 265° |
| 2026-05-08 07:51 | 25.06665 | 46.08849 | 13644 ft | 353 kts | 265° |
| 2026-05-08 07:51 | 25.06600 | 46.06137 | 14271 ft | 355 kts | 265° |
| 2026-05-08 07:52 | 25.06536 | 46.03413 | 14904 ft | 356 kts | 265° |
| 2026-05-08 07:52 | 25.06471 | 46.00680 | 15525 ft | 357 kts | 265° |
| 2026-05-08 07:52 | 25.06405 | 45.97938 | 16152 ft | 359 kts | 265° |
| 2026-05-08 07:52 | 25.06337 | 45.95178 | 16746 ft | 361 kts | 265° |
| 2026-05-08 07:53 | 25.06268 | 45.92409 | 17310 ft | 363 kts | 265° |
| 2026-05-08 07:53 | 25.06198 | 45.89613 | 17889 ft | 365 kts | 265° |
| 2026-05-08 07:53 | 25.06130 | 45.86851 | 18402 ft | 368 kts | 265° |
| 2026-05-08 07:53 | 25.06060 | 45.84021 | 18868 ft | 370 kts | 265° |
| 2026-05-08 07:54 | 25.05989 | 45.81174 | 19309 ft | 372 kts | 265° |
| 2026-05-08 07:54 | 25.05916 | 45.78310 | 19741 ft | 375 kts | 266° |
| 2026-05-08 07:54 | 25.05843 | 45.75430 | 20201 ft | 377 kts | 266° |
| 2026-05-08 07:54 | 25.05769 | 45.72521 | 20631 ft | 380 kts | 266° |
| 2026-05-08 07:55 | 25.05807 | 45.69600 | 21034 ft | 385 kts | 273° |
| 2026-05-08 07:55 | 25.06284 | 45.66679 | 21469 ft | 390 kts | 282° |
| 2026-05-08 07:55 | 25.07178 | 45.63927 | 21888 ft | 396 kts | 291° |
| 2026-05-08 07:55 | 25.08399 | 45.61182 | 22285 ft | 400 kts | 292° |
| 2026-05-08 07:56 | 25.09623 | 45.58410 | 22707 ft | 403 kts | 292° |
| 2026-05-08 07:56 | 25.10843 | 45.55618 | 23098 ft | 406 kts | 292° |
| 2026-05-08 07:56 | 25.12071 | 45.52796 | 23510 ft | 409 kts | 292° |
| 2026-05-08 07:56 | 25.13305 | 45.49961 | 23871 ft | 411 kts | 291° |
| 2026-05-08 07:57 | 25.14529 | 45.47148 | 24250 ft | 413 kts | 291° |
| 2026-05-08 07:57 | 25.15773 | 45.44290 | 24604 ft | 415 kts | 291° |
| 2026-05-08 07:57 | 25.17025 | 45.41414 | 24973 ft | 416 kts | 291° |
| 2026-05-08 07:57 | 25.18280 | 45.38530 | 25350 ft | 418 kts | 291° |
| 2026-05-08 07:58 | 25.19542 | 45.35627 | 25743 ft | 420 kts | 290° |
| 2026-05-08 07:58 | 25.20807 | 45.32714 | 26150 ft | 422 kts | 290° |
| 2026-05-08 07:58 | 25.22075 | 45.29792 | 26587 ft | 424 kts | 290° |
| 2026-05-08 07:58 | 25.23337 | 45.26881 | 27006 ft | 426 kts | 290° |
| 2026-05-08 07:59 | 25.24620 | 45.23921 | 27484 ft | 428 kts | 290° |
| 2026-05-08 07:59 | 25.25906 | 45.20952 | 27929 ft | 430 kts | 290° |
| 2026-05-08 07:59 | 25.27203 | 45.17956 | 28393 ft | 433 kts | 290° |
| 2026-05-08 07:59 | 25.28505 | 45.14946 | 28857 ft | 435 kts | 290° |
| 2026-05-08 08:00 | 25.29812 | 45.11922 | 29303 ft | 438 kts | 289° |
| 2026-05-08 08:00 | 25.31129 | 45.08872 | 29731 ft | 441 kts | 289° |
| 2026-05-08 08:00 | 25.32450 | 45.05811 | 30187 ft | 444 kts | 289° |
| 2026-05-08 08:00 | 25.33787 | 45.02713 | 30581 ft | 446 kts | 289° |
| 2026-05-08 08:01 | 25.35109 | 44.99648 | 30973 ft | 449 kts | 289° |
| 2026-05-08 08:01 | 25.36471 | 44.96487 | 31373 ft | 451 kts | 288° |
| 2026-05-08 08:01 | 25.37804 | 44.93392 | 31745 ft | 454 kts | 288° |
| 2026-05-08 08:01 | 25.39164 | 44.90228 | 32118 ft | 457 kts | 287° |
| 2026-05-08 08:02 | 25.40530 | 44.87051 | 32530 ft | 458 kts | 287° |
| 2026-05-08 08:02 | 25.41899 | 44.83864 | 32887 ft | 462 kts | 287° |
| 2026-05-08 08:02 | 25.43279 | 44.80647 | 33293 ft | 464 kts | 286° |
| 2026-05-08 08:02 | 25.44665 | 44.77416 | 33676 ft | 466 kts | 286° |
| 2026-05-08 08:03 | 25.46056 | 44.74169 | 34046 ft | 469 kts | 285° |
| 2026-05-08 08:03 | 25.47457 | 44.70898 | 34380 ft | 471 kts | 285° |
| 2026-05-08 08:03 | 25.48845 | 44.67656 | 34776 ft | 471 kts | 285° |
| 2026-05-08 08:03 | 25.50245 | 44.64390 | 35269 ft | 469 kts | 285° |
| 2026-05-08 08:04 | 25.51729 | 44.61158 | 35779 ft | 473 kts | 290° |
| 2026-05-08 08:04 | 25.53522 | 44.58079 | 36299 ft | 480 kts | 296° |
| 2026-05-08 08:04 | 25.55617 | 44.55190 | 36819 ft | 486 kts | 301° |
| 2026-05-08 08:04 | 25.58008 | 44.52504 | 37309 ft | 493 kts | 307° |
| 2026-05-08 08:05 | 25.60534 | 44.49942 | 37809 ft | 491 kts | 306° |
| 2026-05-08 08:05 | 25.63005 | 44.47402 | 38012 ft | 494 kts | 306° |
| 2026-05-08 08:05 | 25.65512 | 44.44811 | 38015 ft | 490 kts | 306° |
| 2026-05-08 08:06 | 25.70498 | 44.39657 | 38020 ft | 492 kts | 306° |
| 2026-05-08 08:06 | 25.75510 | 44.34473 | 38023 ft | 493 kts | 306° |
| 2026-05-08 08:07 | 25.80521 | 44.29292 | 38018 ft | 492 kts | 306° |
| 2026-05-08 08:07 | 25.85501 | 44.24134 | 38017 ft | 492 kts | 306° |
| 2026-05-08 08:08 | 25.90501 | 44.18951 | 38006 ft | 492 kts | 306° |
| 2026-05-08 08:08 | 25.95503 | 44.13759 | 38003 ft | 492 kts | 306° |
| 2026-05-08 08:09 | 26.00497 | 44.08567 | 38004 ft | 491 kts | 306° |
| 2026-05-08 08:09 | 26.05448 | 44.03415 | 38006 ft | 491 kts | 306° |
| 2026-05-08 08:10 | 26.10432 | 43.98221 | 38009 ft | 491 kts | 305° |
| 2026-05-08 08:10 | 26.15418 | 43.93020 | 38002 ft | 491 kts | 305° |
| 2026-05-08 08:11 | 26.20396 | 43.87821 | 38016 ft | 491 kts | 305° |
| 2026-05-08 08:11 | 26.25340 | 43.82651 | 38026 ft | 490 kts | 305° |
| 2026-05-08 08:12 | 26.29908 | 43.77174 | 38023 ft | 475 kts | 296° |
| 2026-05-08 08:12 | 26.33533 | 43.71180 | 38027 ft | 462 kts | 289° |
| 2026-05-08 08:13 | 26.36892 | 43.65045 | 38020 ft | 463 kts | 290° |
| 2026-05-08 08:13 | 26.40259 | 43.58927 | 38009 ft | 463 kts | 290° |
| 2026-05-08 08:14 | 26.43599 | 43.52832 | 38008 ft | 463 kts | 290° |
| 2026-05-08 08:14 | 26.46950 | 43.46702 | 38009 ft | 463 kts | 290° |
| 2026-05-08 08:15 | 26.50304 | 43.40558 | 38005 ft | 463 kts | 290° |
| 2026-05-08 08:15 | 26.53652 | 43.34415 | 38007 ft | 464 kts | 290° |
| 2026-05-08 08:16 | 26.56984 | 43.28293 | 38008 ft | 464 kts | 289° |
| 2026-05-08 08:16 | 26.60335 | 43.22129 | 38010 ft | 464 kts | 289° |
| 2026-05-08 08:17 | 26.63686 | 43.15957 | 38012 ft | 465 kts | 289° |
| 2026-05-08 08:17 | 26.67042 | 43.09769 | 38014 ft | 465 kts | 289° |
| 2026-05-08 08:18 | 26.70391 | 43.03588 | 38017 ft | 465 kts | 289° |
| 2026-05-08 08:18 | 26.73722 | 42.97430 | 38018 ft | 465 kts | 289° |
| 2026-05-08 08:19 | 26.77073 | 42.91229 | 38018 ft | 465 kts | 289° |
| 2026-05-08 08:19 | 26.80416 | 42.85031 | 38006 ft | 465 kts | 289° |
| 2026-05-08 08:20 | 26.83755 | 42.78834 | 38016 ft | 465 kts | 289° |
| 2026-05-08 08:20 | 26.87069 | 42.72673 | 38014 ft | 465 kts | 289° |
| 2026-05-08 08:21 | 26.90405 | 42.66464 | 38014 ft | 465 kts | 289° |
| 2026-05-08 08:21 | 26.93739 | 42.60248 | 38015 ft | 465 kts | 289° |
| 2026-05-08 08:22 | 26.97067 | 42.54036 | 38016 ft | 465 kts | 289° |
| 2026-05-08 08:22 | 27.00397 | 42.47810 | 38020 ft | 466 kts | 290° |
| 2026-05-08 08:23 | 27.03711 | 42.41606 | 38021 ft | 467 kts | 290° |
| 2026-05-08 08:23 | 27.07044 | 42.35358 | 38025 ft | 467 kts | 290° |
| 2026-05-08 08:24 | 27.10385 | 42.29086 | 38027 ft | 468 kts | 290° |
| 2026-05-08 08:24 | 27.13724 | 42.22803 | 38039 ft | 469 kts | 290° |
| 2026-05-08 08:25 | 27.17074 | 42.16497 | 38029 ft | 470 kts | 290° |
| 2026-05-08 08:25 | 27.20415 | 42.10198 | 38034 ft | 469 kts | 290° |
| 2026-05-08 08:26 | 27.23727 | 42.03942 | 38039 ft | 469 kts | 290° |
| 2026-05-08 08:26 | 27.27051 | 41.97655 | 38052 ft | 468 kts | 290° |
| 2026-05-08 08:27 | 27.30375 | 41.91358 | 38060 ft | 468 kts | 290° |
| 2026-05-08 08:27 | 27.33696 | 41.85059 | 38075 ft | 468 kts | 290° |
| 2026-05-08 08:28 | 27.36984 | 41.78814 | 38077 ft | 467 kts | 290° |
| 2026-05-08 08:28 | 27.40316 | 41.72536 | 38078 ft | 470 kts | 293° |
| 2026-05-08 08:29 | 27.44355 | 41.66640 | 38078 ft | 483 kts | 302° |
| 2026-05-08 08:29 | 27.49259 | 41.61345 | 38084 ft | 491 kts | 308° |
| 2026-05-08 08:30 | 27.54262 | 41.56172 | 38082 ft | 491 kts | 307° |
| 2026-05-08 08:30 | 27.61807 | 41.48349 | 38058 ft | 492 kts | 307° |
| 2026-05-08 08:31 | 27.66838 | 41.43133 | 38070 ft | 491 kts | 307° |
| 2026-05-08 08:31 | 27.71867 | 41.37910 | 38064 ft | 491 kts | 307° |
| 2026-05-08 08:32 | 27.76853 | 41.32726 | 38061 ft | 491 kts | 307° |
| 2026-05-08 08:32 | 27.81878 | 41.27494 | 38057 ft | 491 kts | 307° |
| 2026-05-08 08:33 | 27.86897 | 41.22263 | 38036 ft | 492 kts | 307° |
| 2026-05-08 08:33 | 27.91920 | 41.17018 | 38064 ft | 492 kts | 308° |
| 2026-05-08 08:34 | 27.96945 | 41.11766 | 38065 ft | 492 kts | 308° |
| 2026-05-08 08:34 | 28.01941 | 41.06540 | 38075 ft | 493 kts | 308° |
| 2026-05-08 08:35 | 28.06973 | 41.01269 | 38081 ft | 493 kts | 308° |
| 2026-05-08 08:35 | 28.12010 | 40.95986 | 38087 ft | 494 kts | 308° |
| 2026-05-08 08:36 | 28.17047 | 40.90695 | 38090 ft | 494 kts | 308° |
| 2026-05-08 08:36 | 28.22052 | 40.85430 | 38089 ft | 494 kts | 308° |
| 2026-05-08 08:37 | 28.27087 | 40.80128 | 38094 ft | 493 kts | 309° |
| 2026-05-08 08:37 | 28.32111 | 40.74831 | 38100 ft | 493 kts | 309° |
| 2026-05-08 08:38 | 28.37126 | 40.69534 | 38097 ft | 493 kts | 309° |
| 2026-05-08 08:38 | 28.42141 | 40.64232 | 38099 ft | 492 kts | 309° |
| 2026-05-08 08:39 | 28.47101 | 40.58979 | 38102 ft | 491 kts | 309° |
| 2026-05-08 08:39 | 28.52092 | 40.53687 | 38105 ft | 490 kts | 310° |
| 2026-05-08 08:40 | 28.57066 | 40.48405 | 38116 ft | 488 kts | 310° |
| 2026-05-08 08:40 | 28.62025 | 40.43133 | 38095 ft | 487 kts | 310° |
| 2026-05-08 08:41 | 28.66942 | 40.37898 | 38097 ft | 486 kts | 310° |
| 2026-05-08 08:41 | 28.71877 | 40.32636 | 38095 ft | 486 kts | 310° |
| 2026-05-08 08:42 | 28.76802 | 40.27379 | 38103 ft | 485 kts | 310° |
| 2026-05-08 08:42 | 28.81720 | 40.22123 | 38105 ft | 484 kts | 310° |
| 2026-05-08 08:43 | 28.86629 | 40.16868 | 38104 ft | 484 kts | 311° |
| 2026-05-08 08:43 | 28.91498 | 40.11650 | 38108 ft | 483 kts | 311° |
| 2026-05-08 08:44 | 28.96391 | 40.06397 | 38106 ft | 483 kts | 311° |
| 2026-05-08 08:44 | 29.01278 | 40.01145 | 38104 ft | 482 kts | 311° |
| 2026-05-08 08:45 | 29.06044 | 39.95779 | 38108 ft | 476 kts | 304° |
| 2026-05-08 08:45 | 29.09370 | 39.89438 | 38108 ft | 464 kts | 287° |
| 2026-05-08 08:46 | 29.10917 | 39.82372 | 38102 ft | 455 kts | 271° |
| 2026-05-08 08:46 | 29.11014 | 39.75175 | 38098 ft | 453 kts | 267° |
| 2026-05-08 08:47 | 29.11052 | 39.67966 | 38103 ft | 454 kts | 267° |
| 2026-05-08 08:47 | 29.11081 | 39.60743 | 38107 ft | 455 kts | 267° |
| 2026-05-08 08:48 | 29.11098 | 39.53548 | 38107 ft | 456 kts | 268° |
| 2026-05-08 08:48 | 29.11111 | 39.46302 | 38106 ft | 456 kts | 268° |
| 2026-05-08 08:49 | 29.11120 | 39.39039 | 38097 ft | 457 kts | 268° |
| 2026-05-08 08:49 | 29.11124 | 39.31768 | 38098 ft | 458 kts | 268° |
| 2026-05-08 08:50 | 29.11125 | 39.24528 | 38095 ft | 458 kts | 268° |
| 2026-05-08 08:50 | 29.11122 | 39.17249 | 38095 ft | 458 kts | 268° |
| 2026-05-08 08:51 | 29.11115 | 39.09954 | 38090 ft | 459 kts | 268° |
| 2026-05-08 08:51 | 29.11104 | 39.02657 | 38083 ft | 459 kts | 268° |
| 2026-05-08 08:52 | 29.11089 | 38.95409 | 38087 ft | 459 kts | 268° |
| 2026-05-08 08:52 | 29.11068 | 38.88113 | 38083 ft | 459 kts | 268° |
| 2026-05-08 08:53 | 29.11037 | 38.80808 | 38076 ft | 459 kts | 268° |
| 2026-05-08 08:53 | 29.11002 | 38.73505 | 38075 ft | 460 kts | 268° |
| 2026-05-08 08:54 | 29.10964 | 38.66236 | 38074 ft | 460 kts | 268° |
| 2026-05-08 08:54 | 29.10922 | 38.58923 | 38078 ft | 460 kts | 268° |
| 2026-05-08 08:55 | 29.10876 | 38.51599 | 38073 ft | 461 kts | 268° |
| 2026-05-08 08:55 | 29.10827 | 38.44273 | 38076 ft | 461 kts | 269° |
| 2026-05-08 08:56 | 29.10773 | 38.36940 | 38078 ft | 461 kts | 269° |
| 2026-05-08 08:56 | 29.10714 | 38.29599 | 38071 ft | 462 kts | 269° |
| 2026-05-08 08:57 | 29.10652 | 38.22309 | 38072 ft | 462 kts | 269° |
| 2026-05-08 08:57 | 29.10585 | 38.14960 | 38071 ft | 462 kts | 269° |
| 2026-05-08 08:58 | 29.10514 | 38.07606 | 38070 ft | 462 kts | 269° |
| 2026-05-08 08:58 | 29.10440 | 38.00259 | 38074 ft | 462 kts | 269° |
| 2026-05-08 08:59 | 29.10362 | 37.92966 | 38073 ft | 462 kts | 269° |
| 2026-05-08 08:59 | 29.10279 | 37.85623 | 38071 ft | 462 kts | 269° |
| 2026-05-08 09:00 | 29.10193 | 37.78278 | 38068 ft | 462 kts | 269° |
| 2026-05-08 09:00 | 29.10102 | 37.70930 | 38068 ft | 462 kts | 269° |
| 2026-05-08 09:01 | 29.10008 | 37.63647 | 38073 ft | 462 kts | 269° |
| 2026-05-08 09:01 | 29.09909 | 37.56301 | 38067 ft | 462 kts | 269° |
| 2026-05-08 09:02 | 29.09810 | 37.48961 | 38069 ft | 462 kts | 270° |
| 2026-05-08 09:02 | 29.09758 | 37.41609 | 38066 ft | 463 kts | 270° |
| 2026-05-08 09:03 | 29.09711 | 37.34295 | 38070 ft | 463 kts | 270° |
| 2026-05-08 09:03 | 29.09652 | 37.26932 | 38073 ft | 463 kts | 270° |
| 2026-05-08 09:04 | 29.09588 | 37.19558 | 38069 ft | 464 kts | 270° |
| 2026-05-08 09:04 | 29.09531 | 37.13433 | 38067 ft | 464 kts | 270° |
| 2026-05-08 09:05 | 29.09446 | 37.04856 | 38070 ft | 464 kts | 270° |
| 2026-05-08 09:05 | 29.09369 | 36.97480 | 38062 ft | 464 kts | 270° |
| 2026-05-08 09:06 | 29.09289 | 36.90103 | 38048 ft | 464 kts | 271° |
| 2026-05-08 09:06 | 29.09204 | 36.82722 | 38035 ft | 464 kts | 271° |
| 2026-05-08 09:07 | 29.09115 | 36.75350 | 38040 ft | 464 kts | 271° |
| 2026-05-08 09:07 | 29.09022 | 36.68027 | 38030 ft | 464 kts | 271° |
| 2026-05-08 09:08 | 29.08941 | 36.61845 | 38030 ft | 464 kts | 271° |
| 2026-05-08 09:08 | 29.08824 | 36.53288 | 38025 ft | 463 kts | 272° |
| 2026-05-08 09:09 | 29.08737 | 36.47175 | 38023 ft | 463 kts | 272° |
| 2026-05-08 09:09 | 29.08551 | 36.39819 | 38020 ft | 463 kts | 271° |
| 2026-05-08 09:10 | 29.08302 | 36.31273 | 38020 ft | 462 kts | 272° |
| 2026-05-08 09:10 | 29.08130 | 36.25173 | 38017 ft | 462 kts | 272° |
| 2026-05-08 09:11 | 29.07923 | 36.17840 | 38017 ft | 462 kts | 272° |
| 2026-05-08 09:11 | 29.07712 | 36.10510 | 38021 ft | 461 kts | 272° |
| 2026-05-08 09:12 | 29.07462 | 36.02002 | 38028 ft | 460 kts | 273° |
| 2026-05-08 09:12 | 29.07280 | 35.95932 | 38024 ft | 459 kts | 273° |
| 2026-05-08 09:13 | 29.07059 | 35.88650 | 38028 ft | 458 kts | 273° |
| 2026-05-08 09:13 | 29.06834 | 35.81375 | 38025 ft | 457 kts | 274° |
| 2026-05-08 09:14 | 29.06605 | 35.74124 | 38025 ft | 456 kts | 274° |
| 2026-05-08 09:14 | 29.06376 | 35.66925 | 38027 ft | 455 kts | 274° |
| 2026-05-08 09:15 | 29.06141 | 35.59706 | 38017 ft | 455 kts | 274° |
| 2026-05-08 09:15 | 29.05902 | 35.52487 | 38027 ft | 454 kts | 274° |
| 2026-05-08 09:16 | 29.05660 | 35.45277 | 38020 ft | 454 kts | 274° |
| 2026-05-08 09:16 | 29.05414 | 35.38082 | 38023 ft | 453 kts | 274° |
| 2026-05-08 09:17 | 29.05166 | 35.30899 | 37986 ft | 452 kts | 274° |
| 2026-05-08 09:17 | 29.04913 | 35.23773 | 38005 ft | 452 kts | 274° |
| 2026-05-08 09:18 | 29.04658 | 35.16601 | 38007 ft | 452 kts | 274° |
| 2026-05-08 09:18 | 29.04399 | 35.09428 | 38003 ft | 452 kts | 275° |